sensor_id;sensor_type;location;lat;lon;timestamp;P1;durP1;ratioP1;P2;durP2;ratioP2
4806;SDS011;2417;52.482;13.432;2022-07-23T00:00:47;12.30;;;7.90;;
4806;SDS011;2417;52.482;13.432;2022-07-23T00:03:15;12.33;;;7.63;;
4806;SDS011;2417;52.482;13.432;2022-07-23T00:05:43;12.40;;;7.90;;
4806;SDS011;2417;52.482;13.432;2022-07-23T00:08:10;19.33;;;7.63;;
4806;SDS011;2417;52.482;13.432;2022-07-23T00:10:42;13.90;;;7.90;;
4806;SDS011;2417;52.482;13.432;2022-07-23T00:13:10;15.43;;;8.00;;
4806;SDS011;2417;52.482;13.432;2022-07-23T00:15:38;13.23;;;7.37;;
4806;SDS011;2417;52.482;13.432;2022-07-23T00:18:06;15.90;;;7.50;;
4806;SDS011;2417;52.482;13.432;2022-07-23T00:20:33;11.30;;;7.70;;
4806;SDS011;2417;52.482;13.432;2022-07-23T00:23:02;17.37;;;8.00;;
4806;SDS011;2417;52.482;13.432;2022-07-23T00:25:30;13.27;;;7.80;;
4806;SDS011;2417;52.482;13.432;2022-07-23T00:28:00;15.17;;;9.00;;
4806;SDS011;2417;52.482;13.432;2022-07-23T00:30:29;14.73;;;8.07;;
4806;SDS011;2417;52.482;13.432;2022-07-23T00:32:59;13.23;;;8.00;;
4806;SDS011;2417;52.482;13.432;2022-07-23T00:35:28;18.50;;;7.90;;
4806;SDS011;2417;52.482;13.432;2022-07-23T00:37:57;11.33;;;7.50;;
4806;SDS011;2417;52.482;13.432;2022-07-23T00:40:26;15.07;;;8.00;;
4806;SDS011;2417;52.482;13.432;2022-07-23T00:42:54;19.23;;;8.20;;
4806;SDS011;2417;52.482;13.432;2022-07-23T00:45:23;14.13;;;7.50;;
4806;SDS011;2417;52.482;13.432;2022-07-23T00:47:51;9.90;;;7.03;;
4806;SDS011;2417;52.482;13.432;2022-07-23T00:50:19;11.57;;;7.40;;
4806;SDS011;2417;52.482;13.432;2022-07-23T00:52:47;14.37;;;8.03;;
4806;SDS011;2417;52.482;13.432;2022-07-23T00:55:15;14.27;;;7.20;;
4806;SDS011;2417;52.482;13.432;2022-07-23T00:57:43;14.50;;;8.03;;
4806;SDS011;2417;52.482;13.432;2022-07-23T01:00:12;10.90;;;7.57;;
4806;SDS011;2417;52.482;13.432;2022-07-23T01:02:42;10.90;;;7.50;;
4806;SDS011;2417;52.482;13.432;2022-07-23T01:05:13;10.83;;;7.30;;
4806;SDS011;2417;52.482;13.432;2022-07-23T01:07:41;14.23;;;7.73;;
4806;SDS011;2417;52.482;13.432;2022-07-23T01:10:10;12.10;;;7.37;;
4806;SDS011;2417;52.482;13.432;2022-07-23T01:12:52;15.53;;;7.23;;
4806;SDS011;2417;52.482;13.432;2022-07-23T01:15:20;12.70;;;7.90;;
4806;SDS011;2417;52.482;13.432;2022-07-23T01:17:50;16.20;;;7.73;;
4806;SDS011;2417;52.482;13.432;2022-07-23T01:20:18;13.90;;;7.73;;
4806;SDS011;2417;52.482;13.432;2022-07-23T01:22:48;10.00;;;7.40;;
4806;SDS011;2417;52.482;13.432;2022-07-23T01:25:16;15.43;;;7.70;;
4806;SDS011;2417;52.482;13.432;2022-07-23T01:27:53;12.70;;;8.00;;
4806;SDS011;2417;52.482;13.432;2022-07-23T01:30:22;10.77;;;7.27;;
4806;SDS011;2417;52.482;13.432;2022-07-23T01:32:50;13.57;;;8.20;;
4806;SDS011;2417;52.482;13.432;2022-07-23T01:35:19;12.57;;;7.03;;
4806;SDS011;2417;52.482;13.432;2022-07-23T01:37:49;18.27;;;7.23;;
4806;SDS011;2417;52.482;13.432;2022-07-23T01:40:17;11.60;;;7.67;;
4806;SDS011;2417;52.482;13.432;2022-07-23T01:42:48;15.07;;;8.27;;
4806;SDS011;2417;52.482;13.432;2022-07-23T01:45:16;14.53;;;8.00;;
4806;SDS011;2417;52.482;13.432;2022-07-23T01:47:48;20.53;;;8.63;;
4806;SDS011;2417;52.482;13.432;2022-07-23T01:50:16;14.30;;;8.20;;
4806;SDS011;2417;52.482;13.432;2022-07-23T01:53:18;17.13;;;7.80;;
4806;SDS011;2417;52.482;13.432;2022-07-23T01:55:45;13.30;;;8.43;;
4806;SDS011;2417;52.482;13.432;2022-07-23T01:58:13;13.93;;;8.23;;
4806;SDS011;2417;52.482;13.432;2022-07-23T02:00:41;14.20;;;8.40;;
4806;SDS011;2417;52.482;13.432;2022-07-23T02:03:09;16.10;;;8.63;;
4806;SDS011;2417;52.482;13.432;2022-07-23T02:05:37;17.07;;;9.00;;
4806;SDS011;2417;52.482;13.432;2022-07-23T02:08:05;14.87;;;9.00;;
4806;SDS011;2417;52.482;13.432;2022-07-23T02:10:36;13.47;;;8.80;;
4806;SDS011;2417;52.482;13.432;2022-07-23T02:13:04;13.33;;;8.77;;
4806;SDS011;2417;52.482;13.432;2022-07-23T02:15:32;16.93;;;8.50;;
4806;SDS011;2417;52.482;13.432;2022-07-23T02:18:00;16.73;;;9.93;;
4806;SDS011;2417;52.482;13.432;2022-07-23T02:20:30;16.40;;;9.13;;
4806;SDS011;2417;52.482;13.432;2022-07-23T02:22:58;13.87;;;8.77;;
4806;SDS011;2417;52.482;13.432;2022-07-23T02:25:26;14.00;;;9.10;;
4806;SDS011;2417;52.482;13.432;2022-07-23T02:28:00;16.00;;;8.73;;
4806;SDS011;2417;52.482;13.432;2022-07-23T02:30:28;17.93;;;9.63;;
4806;SDS011;2417;52.482;13.432;2022-07-23T02:32:56;18.30;;;9.87;;
4806;SDS011;2417;52.482;13.432;2022-07-23T02:35:24;13.83;;;8.40;;
4806;SDS011;2417;52.482;13.432;2022-07-23T02:37:52;14.53;;;8.90;;
4806;SDS011;2417;52.482;13.432;2022-07-23T02:40:20;14.10;;;8.10;;
4806;SDS011;2417;52.482;13.432;2022-07-23T02:42:48;14.30;;;8.50;;
4806;SDS011;2417;52.482;13.432;2022-07-23T02:45:17;14.90;;;7.90;;
4806;SDS011;2417;52.482;13.432;2022-07-23T02:47:44;12.80;;;8.33;;
4806;SDS011;2417;52.482;13.432;2022-07-23T02:50:12;15.20;;;8.50;;
4806;SDS011;2417;52.482;13.432;2022-07-23T02:52:40;16.80;;;8.20;;
4806;SDS011;2417;52.482;13.432;2022-07-23T02:55:08;14.10;;;7.67;;
4806;SDS011;2417;52.482;13.432;2022-07-23T02:57:37;14.80;;;8.23;;
4806;SDS011;2417;52.482;13.432;2022-07-23T03:00:05;17.60;;;9.03;;
4806;SDS011;2417;52.482;13.432;2022-07-23T03:02:36;16.23;;;8.80;;
4806;SDS011;2417;52.482;13.432;2022-07-23T03:05:04;17.10;;;8.30;;
4806;SDS011;2417;52.482;13.432;2022-07-23T03:07:33;16.13;;;7.73;;
4806;SDS011;2417;52.482;13.432;2022-07-23T03:10:03;14.97;;;8.23;;
4806;SDS011;2417;52.482;13.432;2022-07-23T03:12:31;13.60;;;8.00;;
4806;SDS011;2417;52.482;13.432;2022-07-23T03:14:59;12.03;;;7.90;;
4806;SDS011;2417;52.482;13.432;2022-07-23T03:17:27;14.40;;;7.87;;
4806;SDS011;2417;52.482;13.432;2022-07-23T03:19:56;13.30;;;7.77;;
4806;SDS011;2417;52.482;13.432;2022-07-23T03:22:24;17.07;;;8.27;;
4806;SDS011;2417;52.482;13.432;2022-07-23T03:24:52;12.00;;;7.17;;
4806;SDS011;2417;52.482;13.432;2022-07-23T03:27:26;13.13;;;7.93;;
4806;SDS011;2417;52.482;13.432;2022-07-23T03:29:55;14.80;;;7.97;;
4806;SDS011;2417;52.482;13.432;2022-07-23T03:32:42;14.77;;;7.57;;
4806;SDS011;2417;52.482;13.432;2022-07-23T03:35:12;12.63;;;7.10;;
4806;SDS011;2417;52.482;13.432;2022-07-23T03:38:03;12.70;;;7.70;;
4806;SDS011;2417;52.482;13.432;2022-07-23T03:40:31;15.33;;;7.33;;
4806;SDS011;2417;52.482;13.432;2022-07-23T03:42:59;14.57;;;7.47;;
4806;SDS011;2417;52.482;13.432;2022-07-23T03:45:27;11.63;;;7.07;;
4806;SDS011;2417;52.482;13.432;2022-07-23T03:47:55;14.80;;;7.50;;
4806;SDS011;2417;52.482;13.432;2022-07-23T03:50:24;12.30;;;6.80;;
4806;SDS011;2417;52.482;13.432;2022-07-23T03:52:52;16.00;;;7.00;;
4806;SDS011;2417;52.482;13.432;2022-07-23T03:55:20;12.63;;;6.90;;
4806;SDS011;2417;52.482;13.432;2022-07-23T03:57:48;14.10;;;6.70;;
4806;SDS011;2417;52.482;13.432;2022-07-23T04:00:16;17.90;;;6.27;;
4806;SDS011;2417;52.482;13.432;2022-07-23T04:02:48;13.20;;;5.80;;
4806;SDS011;2417;52.482;13.432;2022-07-23T04:05:16;12.97;;;6.13;;
4806;SDS011;2417;52.482;13.432;2022-07-23T04:07:50;11.90;;;5.87;;
4806;SDS011;2417;52.482;13.432;2022-07-23T04:10:18;11.83;;;5.60;;
4806;SDS011;2417;52.482;13.432;2022-07-23T04:12:46;11.03;;;5.80;;
4806;SDS011;2417;52.482;13.432;2022-07-23T04:15:14;22.60;;;5.90;;
4806;SDS011;2417;52.482;13.432;2022-07-23T04:17:42;14.63;;;5.40;;
4806;SDS011;2417;52.482;13.432;2022-07-23T04:20:11;13.80;;;5.53;;
4806;SDS011;2417;52.482;13.432;2022-07-23T04:22:46;12.83;;;5.33;;
4806;SDS011;2417;52.482;13.432;2022-07-23T04:25:16;10.43;;;5.50;;
4806;SDS011;2417;52.482;13.432;2022-07-23T04:27:44;11.33;;;4.83;;
4806;SDS011;2417;52.482;13.432;2022-07-23T04:30:12;14.37;;;5.83;;
4806;SDS011;2417;52.482;13.432;2022-07-23T04:32:40;10.30;;;4.37;;
4806;SDS011;2417;52.482;13.432;2022-07-23T04:35:17;8.30;;;4.43;;
4806;SDS011;2417;52.482;13.432;2022-07-23T04:37:45;9.57;;;4.20;;
4806;SDS011;2417;52.482;13.432;2022-07-23T04:40:16;37.80;;;7.30;;
4806;SDS011;2417;52.482;13.432;2022-07-23T04:42:44;15.30;;;5.37;;
4806;SDS011;2417;52.482;13.432;2022-07-23T04:45:11;18.27;;;6.30;;
4806;SDS011;2417;52.482;13.432;2022-07-23T04:47:40;19.30;;;6.10;;
4806;SDS011;2417;52.482;13.432;2022-07-23T04:50:08;20.03;;;7.50;;
4806;SDS011;2417;52.482;13.432;2022-07-23T04:52:39;11.83;;;6.20;;
4806;SDS011;2417;52.482;13.432;2022-07-23T04:55:07;18.77;;;7.13;;
4806;SDS011;2417;52.482;13.432;2022-07-23T04:57:36;15.90;;;7.40;;
4806;SDS011;2417;52.482;13.432;2022-07-23T05:00:05;15.60;;;7.13;;
4806;SDS011;2417;52.482;13.432;2022-07-23T05:02:33;15.07;;;7.53;;
4806;SDS011;2417;52.482;13.432;2022-07-23T05:05:01;22.20;;;8.10;;
4806;SDS011;2417;52.482;13.432;2022-07-23T05:07:29;17.53;;;8.27;;
4806;SDS011;2417;52.482;13.432;2022-07-23T05:09:57;21.00;;;8.53;;
4806;SDS011;2417;52.482;13.432;2022-07-23T05:12:25;17.87;;;8.40;;
4806;SDS011;2417;52.482;13.432;2022-07-23T05:14:54;22.63;;;7.70;;
4806;SDS011;2417;52.482;13.432;2022-07-23T05:17:22;18.73;;;8.60;;
4806;SDS011;2417;52.482;13.432;2022-07-23T05:19:50;15.10;;;8.63;;
4806;SDS011;2417;52.482;13.432;2022-07-23T05:22:25;16.00;;;7.60;;
4806;SDS011;2417;52.482;13.432;2022-07-23T05:24:54;17.40;;;7.90;;
4806;SDS011;2417;52.482;13.432;2022-07-23T05:27:21;20.00;;;7.90;;
4806;SDS011;2417;52.482;13.432;2022-07-23T05:29:49;19.57;;;7.93;;
4806;SDS011;2417;52.482;13.432;2022-07-23T05:32:18;14.27;;;7.70;;
4806;SDS011;2417;52.482;13.432;2022-07-23T05:34:54;14.00;;;7.80;;
4806;SDS011;2417;52.482;13.432;2022-07-23T05:37:22;15.77;;;7.23;;
4806;SDS011;2417;52.482;13.432;2022-07-23T05:39:50;16.80;;;7.97;;
4806;SDS011;2417;52.482;13.432;2022-07-23T05:42:18;18.30;;;7.47;;
4806;SDS011;2417;52.482;13.432;2022-07-23T05:44:45;16.60;;;7.60;;
4806;SDS011;2417;52.482;13.432;2022-07-23T05:47:13;16.67;;;7.33;;
4806;SDS011;2417;52.482;13.432;2022-07-23T05:49:42;24.60;;;8.10;;
4806;SDS011;2417;52.482;13.432;2022-07-23T05:52:33;14.93;;;8.20;;
4806;SDS011;2417;52.482;13.432;2022-07-23T05:55:21;17.57;;;7.80;;
4806;SDS011;2417;52.482;13.432;2022-07-23T05:57:49;13.53;;;7.40;;
4806;SDS011;2417;52.482;13.432;2022-07-23T06:00:17;14.30;;;8.60;;
4806;SDS011;2417;52.482;13.432;2022-07-23T06:02:46;16.27;;;8.00;;
4806;SDS011;2417;52.482;13.432;2022-07-23T06:05:22;14.33;;;7.70;;
4806;SDS011;2417;52.482;13.432;2022-07-23T06:07:52;13.27;;;8.00;;
4806;SDS011;2417;52.482;13.432;2022-07-23T06:10:22;18.27;;;8.13;;
4806;SDS011;2417;52.482;13.432;2022-07-23T06:12:50;18.40;;;9.30;;
4806;SDS011;2417;52.482;13.432;2022-07-23T06:15:23;16.90;;;8.30;;
4806;SDS011;2417;52.482;13.432;2022-07-23T06:17:51;25.83;;;9.10;;
4806;SDS011;2417;52.482;13.432;2022-07-23T06:20:19;18.67;;;7.90;;
4806;SDS011;2417;52.482;13.432;2022-07-23T06:22:48;20.90;;;9.50;;
4806;SDS011;2417;52.482;13.432;2022-07-23T06:25:16;18.83;;;8.70;;
4806;SDS011;2417;52.482;13.432;2022-07-23T06:27:45;17.23;;;8.63;;
4806;SDS011;2417;52.482;13.432;2022-07-23T06:30:13;19.70;;;9.13;;
4806;SDS011;2417;52.482;13.432;2022-07-23T06:32:44;21.13;;;9.17;;
4806;SDS011;2417;52.482;13.432;2022-07-23T06:35:13;20.93;;;9.60;;
4806;SDS011;2417;52.482;13.432;2022-07-23T06:37:41;22.07;;;10.70;;
4806;SDS011;2417;52.482;13.432;2022-07-23T06:40:11;24.77;;;11.07;;
4806;SDS011;2417;52.482;13.432;2022-07-23T06:42:40;21.30;;;9.80;;
4806;SDS011;2417;52.482;13.432;2022-07-23T06:45:14;22.07;;;10.63;;
4806;SDS011;2417;52.482;13.432;2022-07-23T06:47:42;20.10;;;10.57;;
4806;SDS011;2417;52.482;13.432;2022-07-23T06:50:10;20.00;;;10.93;;
4806;SDS011;2417;52.482;13.432;2022-07-23T06:52:38;21.10;;;10.50;;
4806;SDS011;2417;52.482;13.432;2022-07-23T06:55:08;21.33;;;11.20;;
4806;SDS011;2417;52.482;13.432;2022-07-23T06:57:38;19.70;;;10.73;;
4806;SDS011;2417;52.482;13.432;2022-07-23T07:00:06;21.77;;;10.20;;
4806;SDS011;2417;52.482;13.432;2022-07-23T07:02:34;19.40;;;10.00;;
4806;SDS011;2417;52.482;13.432;2022-07-23T07:05:02;19.00;;;10.60;;
4806;SDS011;2417;52.482;13.432;2022-07-23T07:07:32;19.07;;;9.57;;
4806;SDS011;2417;52.482;13.432;2022-07-23T07:09:59;19.43;;;10.73;;
4806;SDS011;2417;52.482;13.432;2022-07-23T07:12:27;20.37;;;11.50;;
4806;SDS011;2417;52.482;13.432;2022-07-23T07:14:56;25.50;;;10.33;;
4806;SDS011;2417;52.482;13.432;2022-07-23T07:17:24;21.60;;;10.80;;
4806;SDS011;2417;52.482;13.432;2022-07-23T07:19:52;29.37;;;15.10;;
4806;SDS011;2417;52.482;13.432;2022-07-23T07:22:20;39.30;;;24.53;;
4806;SDS011;2417;52.482;13.432;2022-07-23T07:24:47;53.33;;;32.73;;
4806;SDS011;2417;52.482;13.432;2022-07-23T07:27:15;44.60;;;28.27;;
4806;SDS011;2417;52.482;13.432;2022-07-23T07:29:42;44.63;;;26.80;;
4806;SDS011;2417;52.482;13.432;2022-07-23T07:32:12;31.67;;;20.80;;
4806;SDS011;2417;52.482;13.432;2022-07-23T07:35:00;32.40;;;20.10;;
4806;SDS011;2417;52.482;13.432;2022-07-23T07:37:50;36.30;;;19.90;;
4806;SDS011;2417;52.482;13.432;2022-07-23T07:40:18;35.23;;;20.20;;
4806;SDS011;2417;52.482;13.432;2022-07-23T07:42:47;32.37;;;18.13;;
4806;SDS011;2417;52.482;13.432;2022-07-23T07:45:15;27.80;;;15.60;;
4806;SDS011;2417;52.482;13.432;2022-07-23T07:47:44;32.17;;;16.70;;
4806;SDS011;2417;52.482;13.432;2022-07-23T07:50:13;31.13;;;17.73;;
4806;SDS011;2417;52.482;13.432;2022-07-23T07:52:40;28.60;;;15.53;;
4806;SDS011;2417;52.482;13.432;2022-07-23T07:55:09;28.03;;;15.80;;
4806;SDS011;2417;52.482;13.432;2022-07-23T07:57:38;28.70;;;16.70;;
4806;SDS011;2417;52.482;13.432;2022-07-23T08:00:07;27.93;;;16.50;;
4806;SDS011;2417;52.482;13.432;2022-07-23T08:02:42;30.40;;;16.30;;
4806;SDS011;2417;52.482;13.432;2022-07-23T08:05:11;30.43;;;15.00;;
4806;SDS011;2417;52.482;13.432;2022-07-23T08:07:39;28.77;;;14.77;;
4806;SDS011;2417;52.482;13.432;2022-07-23T08:10:08;24.40;;;14.00;;
4806;SDS011;2417;52.482;13.432;2022-07-23T08:12:43;22.17;;;12.20;;
4806;SDS011;2417;52.482;13.432;2022-07-23T08:15:12;23.60;;;12.63;;
4806;SDS011;2417;52.482;13.432;2022-07-23T08:17:40;23.77;;;12.67;;
4806;SDS011;2417;52.482;13.432;2022-07-23T08:20:09;23.07;;;9.70;;
4806;SDS011;2417;52.482;13.432;2022-07-23T08:22:42;17.40;;;9.07;;
4806;SDS011;2417;52.482;13.432;2022-07-23T08:25:11;13.70;;;8.33;;
4806;SDS011;2417;52.482;13.432;2022-07-23T08:27:39;16.67;;;7.73;;
4806;SDS011;2417;52.482;13.432;2022-07-23T08:30:07;10.00;;;6.20;;
4806;SDS011;2417;52.482;13.432;2022-07-23T08:32:48;13.90;;;6.30;;
4806;SDS011;2417;52.482;13.432;2022-07-23T08:35:17;12.30;;;5.77;;
4806;SDS011;2417;52.482;13.432;2022-07-23T08:37:46;14.00;;;6.13;;
4806;SDS011;2417;52.482;13.432;2022-07-23T08:40:14;9.20;;;5.53;;
4806;SDS011;2417;52.482;13.432;2022-07-23T08:42:42;11.03;;;5.33;;
4806;SDS011;2417;52.482;13.432;2022-07-23T08:45:11;14.23;;;5.80;;
4806;SDS011;2417;52.482;13.432;2022-07-23T08:47:40;14.00;;;5.87;;
4806;SDS011;2417;52.482;13.432;2022-07-23T08:50:08;11.77;;;5.83;;
4806;SDS011;2417;52.482;13.432;2022-07-23T08:52:37;10.10;;;4.50;;
4806;SDS011;2417;52.482;13.432;2022-07-23T08:55:08;8.83;;;4.57;;
4806;SDS011;2417;52.482;13.432;2022-07-23T08:57:36;9.23;;;4.37;;
4806;SDS011;2417;52.482;13.432;2022-07-23T09:00:04;9.97;;;3.93;;
4806;SDS011;2417;52.482;13.432;2022-07-23T09:02:38;9.43;;;4.70;;
4806;SDS011;2417;52.482;13.432;2022-07-23T09:05:06;9.67;;;5.50;;
4806;SDS011;2417;52.482;13.432;2022-07-23T09:07:34;11.40;;;4.47;;
4806;SDS011;2417;52.482;13.432;2022-07-23T09:10:08;9.93;;;4.50;;
4806;SDS011;2417;52.482;13.432;2022-07-23T09:12:36;10.33;;;4.53;;
4806;SDS011;2417;52.482;13.432;2022-07-23T09:15:06;7.37;;;4.20;;
4806;SDS011;2417;52.482;13.432;2022-07-23T09:17:36;8.53;;;4.50;;
4806;SDS011;2417;52.482;13.432;2022-07-23T09:20:09;12.13;;;4.57;;
4806;SDS011;2417;52.482;13.432;2022-07-23T09:22:37;11.23;;;4.70;;
4806;SDS011;2417;52.482;13.432;2022-07-23T09:25:06;11.27;;;4.50;;
4806;SDS011;2417;52.482;13.432;2022-07-23T09:27:55;9.20;;;4.53;;
4806;SDS011;2417;52.482;13.432;2022-07-23T09:30:23;10.03;;;3.80;;
4806;SDS011;2417;52.482;13.432;2022-07-23T09:33:03;11.10;;;5.00;;
4806;SDS011;2417;52.482;13.432;2022-07-23T09:35:44;9.97;;;4.00;;
4806;SDS011;2417;52.482;13.432;2022-07-23T09:38:13;9.83;;;4.33;;
4806;SDS011;2417;52.482;13.432;2022-07-23T09:40:41;13.77;;;5.37;;
4806;SDS011;2417;52.482;13.432;2022-07-23T09:43:10;10.33;;;3.97;;
4806;SDS011;2417;52.482;13.432;2022-07-23T09:45:38;11.60;;;4.57;;
4806;SDS011;2417;52.482;13.432;2022-07-23T09:48:10;9.07;;;4.13;;
4806;SDS011;2417;52.482;13.432;2022-07-23T09:50:38;11.00;;;4.70;;
4806;SDS011;2417;52.482;13.432;2022-07-23T09:53:07;12.10;;;4.20;;
4806;SDS011;2417;52.482;13.432;2022-07-23T09:55:35;9.70;;;4.63;;
4806;SDS011;2417;52.482;13.432;2022-07-23T09:58:05;9.83;;;5.00;;
4806;SDS011;2417;52.482;13.432;2022-07-23T10:00:34;10.97;;;5.00;;
4806;SDS011;2417;52.482;13.432;2022-07-23T10:03:04;7.17;;;4.27;;
4806;SDS011;2417;52.482;13.432;2022-07-23T10:05:51;16.43;;;4.80;;
4806;SDS011;2417;52.482;13.432;2022-07-23T10:08:29;10.17;;;4.30;;
4806;SDS011;2417;52.482;13.432;2022-07-23T10:11:27;11.33;;;4.70;;
4806;SDS011;2417;52.482;13.432;2022-07-23T10:14:04;8.07;;;4.20;;
4806;SDS011;2417;52.482;13.432;2022-07-23T10:16:49;9.10;;;4.40;;
4806;SDS011;2417;52.482;13.432;2022-07-23T10:19:18;14.17;;;4.57;;
4806;SDS011;2417;52.482;13.432;2022-07-23T10:21:46;10.00;;;4.20;;
4806;SDS011;2417;52.482;13.432;2022-07-23T10:24:17;7.93;;;4.20;;
4806;SDS011;2417;52.482;13.432;2022-07-23T10:26:51;9.67;;;4.10;;
4806;SDS011;2417;52.482;13.432;2022-07-23T10:29:23;13.33;;;4.20;;
4806;SDS011;2417;52.482;13.432;2022-07-23T10:31:58;17.33;;;9.47;;
4806;SDS011;2417;52.482;13.432;2022-07-23T10:34:34;15.03;;;4.10;;
4806;SDS011;2417;52.482;13.432;2022-07-23T10:37:06;14.93;;;4.40;;
4806;SDS011;2417;52.482;13.432;2022-07-23T10:39:35;10.90;;;4.20;;
4806;SDS011;2417;52.482;13.432;2022-07-23T10:42:10;13.93;;;5.80;;
4806;SDS011;2417;52.482;13.432;2022-07-23T10:44:39;8.67;;;4.77;;
4806;SDS011;2417;52.482;13.432;2022-07-23T10:47:10;8.37;;;4.30;;
4806;SDS011;2417;52.482;13.432;2022-07-23T10:49:49;14.50;;;8.70;;
4806;SDS011;2417;52.482;13.432;2022-07-23T10:52:22;10.03;;;4.20;;
4806;SDS011;2417;52.482;13.432;2022-07-23T10:54:52;17.30;;;10.80;;
4806;SDS011;2417;52.482;13.432;2022-07-23T10:57:21;10.83;;;4.50;;
4806;SDS011;2417;52.482;13.432;2022-07-23T11:02:39;9.40;;;4.13;;
4806;SDS011;2417;52.482;13.432;2022-07-23T11:05:08;12.07;;;4.87;;
4806;SDS011;2417;52.482;13.432;2022-07-23T11:07:36;12.17;;;7.70;;
4806;SDS011;2417;52.482;13.432;2022-07-23T11:10:05;12.63;;;5.10;;
4806;SDS011;2417;52.482;13.432;2022-07-23T11:12:33;9.60;;;4.27;;
4806;SDS011;2417;52.482;13.432;2022-07-23T11:15:04;11.00;;;5.07;;
4806;SDS011;2417;52.482;13.432;2022-07-23T11:17:33;14.67;;;4.87;;
4806;SDS011;2417;52.482;13.432;2022-07-23T11:20:18;9.30;;;4.53;;
4806;SDS011;2417;52.482;13.432;2022-07-23T11:22:46;9.50;;;3.97;;
4806;SDS011;2417;52.482;13.432;2022-07-23T11:25:28;7.77;;;3.70;;
4806;SDS011;2417;52.482;13.432;2022-07-23T11:28:07;9.70;;;4.00;;
4806;SDS011;2417;52.482;13.432;2022-07-23T11:30:39;10.17;;;4.60;;
4806;SDS011;2417;52.482;13.432;2022-07-23T11:33:18;9.20;;;3.97;;
4806;SDS011;2417;52.482;13.432;2022-07-23T11:35:48;10.63;;;4.23;;
4806;SDS011;2417;52.482;13.432;2022-07-23T11:38:17;10.53;;;4.17;;
4806;SDS011;2417;52.482;13.432;2022-07-23T11:40:47;9.17;;;3.90;;
4806;SDS011;2417;52.482;13.432;2022-07-23T11:43:15;7.00;;;4.27;;
4806;SDS011;2417;52.482;13.432;2022-07-23T11:45:43;9.53;;;4.00;;
4806;SDS011;2417;52.482;13.432;2022-07-23T11:48:15;10.73;;;4.10;;
4806;SDS011;2417;52.482;13.432;2022-07-23T11:50:45;9.90;;;3.77;;
4806;SDS011;2417;52.482;13.432;2022-07-23T11:53:15;8.77;;;3.60;;
4806;SDS011;2417;52.482;13.432;2022-07-23T11:55:48;4.30;;;3.10;;
4806;SDS011;2417;52.482;13.432;2022-07-23T11:58:16;7.93;;;3.30;;
4806;SDS011;2417;52.482;13.432;2022-07-23T12:00:46;5.60;;;3.43;;
4806;SDS011;2417;52.482;13.432;2022-07-23T12:03:14;9.50;;;3.80;;
4806;SDS011;2417;52.482;13.432;2022-07-23T12:05:42;8.43;;;3.97;;
4806;SDS011;2417;52.482;13.432;2022-07-23T12:08:10;8.70;;;3.60;;
4806;SDS011;2417;52.482;13.432;2022-07-23T12:10:40;11.03;;;4.00;;
4806;SDS011;2417;52.482;13.432;2022-07-23T12:13:10;9.73;;;4.30;;
4806;SDS011;2417;52.482;13.432;2022-07-23T12:15:38;9.77;;;4.37;;
4806;SDS011;2417;52.482;13.432;2022-07-23T12:18:07;10.50;;;4.47;;
4806;SDS011;2417;52.482;13.432;2022-07-23T12:20:35;8.40;;;4.37;;
4806;SDS011;2417;52.482;13.432;2022-07-23T12:23:04;8.27;;;4.30;;
4806;SDS011;2417;52.482;13.432;2022-07-23T12:25:33;7.77;;;4.37;;
4806;SDS011;2417;52.482;13.432;2022-07-23T12:28:04;8.47;;;4.80;;
4806;SDS011;2417;52.482;13.432;2022-07-23T12:30:33;13.90;;;4.97;;
4806;SDS011;2417;52.482;13.432;2022-07-23T12:33:01;10.63;;;5.13;;
4806;SDS011;2417;52.482;13.432;2022-07-23T12:35:32;10.90;;;4.50;;
4806;SDS011;2417;52.482;13.432;2022-07-23T12:38:01;10.03;;;4.57;;
4806;SDS011;2417;52.482;13.432;2022-07-23T12:40:29;9.33;;;4.27;;
4806;SDS011;2417;52.482;13.432;2022-07-23T12:42:58;15.00;;;4.40;;
4806;SDS011;2417;52.482;13.432;2022-07-23T12:45:28;9.27;;;4.40;;
4806;SDS011;2417;52.482;13.432;2022-07-23T12:48:11;8.40;;;4.67;;
4806;SDS011;2417;52.482;13.432;2022-07-23T12:50:44;6.73;;;4.47;;
4806;SDS011;2417;52.482;13.432;2022-07-23T12:53:16;9.70;;;4.70;;
4806;SDS011;2417;52.482;13.432;2022-07-23T12:55:50;11.10;;;5.23;;
4806;SDS011;2417;52.482;13.432;2022-07-23T12:58:41;8.93;;;4.30;;
4806;SDS011;2417;52.482;13.432;2022-07-23T13:01:13;10.30;;;4.40;;
4806;SDS011;2417;52.482;13.432;2022-07-23T13:03:55;12.87;;;4.93;;
4806;SDS011;2417;52.482;13.432;2022-07-23T13:06:24;11.60;;;4.13;;
4806;SDS011;2417;52.482;13.432;2022-07-23T13:08:53;9.97;;;4.30;;
4806;SDS011;2417;52.482;13.432;2022-07-23T13:11:21;9.60;;;4.37;;
4806;SDS011;2417;52.482;13.432;2022-07-23T13:13:48;10.70;;;4.53;;
4806;SDS011;2417;52.482;13.432;2022-07-23T13:16:18;7.60;;;5.03;;
4806;SDS011;2417;52.482;13.432;2022-07-23T13:18:48;10.80;;;4.70;;
4806;SDS011;2417;52.482;13.432;2022-07-23T13:21:16;7.83;;;4.77;;
4806;SDS011;2417;52.482;13.432;2022-07-23T13:23:46;8.20;;;4.47;;
4806;SDS011;2417;52.482;13.432;2022-07-23T13:26:13;8.70;;;4.87;;
4806;SDS011;2417;52.482;13.432;2022-07-23T13:28:41;9.10;;;5.13;;
4806;SDS011;2417;52.482;13.432;2022-07-23T13:31:09;7.03;;;4.57;;
4806;SDS011;2417;52.482;13.432;2022-07-23T13:33:38;7.87;;;4.20;;
4806;SDS011;2417;52.482;13.432;2022-07-23T13:36:09;7.23;;;4.50;;
4806;SDS011;2417;52.482;13.432;2022-07-23T13:38:37;7.10;;;4.13;;
4806;SDS011;2417;52.482;13.432;2022-07-23T13:41:05;9.47;;;4.47;;
4806;SDS011;2417;52.482;13.432;2022-07-23T13:43:38;10.77;;;4.80;;
4806;SDS011;2417;52.482;13.432;2022-07-23T13:46:06;11.40;;;4.67;;
4806;SDS011;2417;52.482;13.432;2022-07-23T13:48:34;11.23;;;5.07;;
4806;SDS011;2417;52.482;13.432;2022-07-23T13:51:04;15.83;;;5.47;;
4806;SDS011;2417;52.482;13.432;2022-07-23T13:53:31;11.30;;;5.40;;
4806;SDS011;2417;52.482;13.432;2022-07-23T13:55:59;9.97;;;5.03;;
4806;SDS011;2417;52.482;13.432;2022-07-23T13:58:27;10.70;;;4.50;;
4806;SDS011;2417;52.482;13.432;2022-07-23T14:00:56;11.40;;;5.00;;
4806;SDS011;2417;52.482;13.432;2022-07-23T14:03:24;8.63;;;4.77;;
4806;SDS011;2417;52.482;13.432;2022-07-23T14:05:53;13.03;;;6.70;;
4806;SDS011;2417;52.482;13.432;2022-07-23T14:08:24;11.37;;;5.30;;
4806;SDS011;2417;52.482;13.432;2022-07-23T14:10:53;8.60;;;4.73;;
4806;SDS011;2417;52.482;13.432;2022-07-23T14:13:24;15.70;;;5.60;;
4806;SDS011;2417;52.482;13.432;2022-07-23T14:15:52;14.07;;;8.40;;
4806;SDS011;2417;52.482;13.432;2022-07-23T14:18:21;13.50;;;5.97;;
4806;SDS011;2417;52.482;13.432;2022-07-23T14:20:48;9.37;;;5.83;;
4806;SDS011;2417;52.482;13.432;2022-07-23T14:23:17;11.17;;;5.03;;
4806;SDS011;2417;52.482;13.432;2022-07-23T14:25:46;13.33;;;5.47;;
4806;SDS011;2417;52.482;13.432;2022-07-23T14:28:14;9.30;;;4.93;;
4806;SDS011;2417;52.482;13.432;2022-07-23T14:30:46;9.00;;;4.27;;
4806;SDS011;2417;52.482;13.432;2022-07-23T14:33:14;6.67;;;3.90;;
4806;SDS011;2417;52.482;13.432;2022-07-23T14:35:43;11.80;;;4.40;;
4806;SDS011;2417;52.482;13.432;2022-07-23T14:38:10;9.67;;;4.23;;
4806;SDS011;2417;52.482;13.432;2022-07-23T14:40:39;7.30;;;3.70;;
4806;SDS011;2417;52.482;13.432;2022-07-23T14:43:09;10.43;;;3.60;;
4806;SDS011;2417;52.482;13.432;2022-07-23T14:45:37;11.00;;;3.80;;
4806;SDS011;2417;52.482;13.432;2022-07-23T14:48:05;8.63;;;3.67;;
4806;SDS011;2417;52.482;13.432;2022-07-23T14:50:34;7.80;;;3.90;;
4806;SDS011;2417;52.482;13.432;2022-07-23T14:53:02;6.20;;;3.20;;
4806;SDS011;2417;52.482;13.432;2022-07-23T14:55:30;8.00;;;3.83;;
4806;SDS011;2417;52.482;13.432;2022-07-23T14:57:59;6.40;;;3.20;;
4806;SDS011;2417;52.482;13.432;2022-07-23T15:00:28;6.90;;;3.27;;
4806;SDS011;2417;52.482;13.432;2022-07-23T15:02:56;7.60;;;3.70;;
4806;SDS011;2417;52.482;13.432;2022-07-23T15:05:24;18.63;;;3.13;;
4806;SDS011;2417;52.482;13.432;2022-07-23T15:07:52;8.87;;;4.33;;
4806;SDS011;2417;52.482;13.432;2022-07-23T15:10:20;9.60;;;3.93;;